createdAt,value
2019-02-28T00:02:07.103Z,4.70
2019-02-28T00:07:10.489Z,4.60
2019-02-28T00:12:14.411Z,4.60
2019-02-28T00:17:17.833Z,4.50
2019-02-28T00:22:21.227Z,4.40
2019-02-28T00:27:24.627Z,4.30
2019-02-28T00:32:28.002Z,4.30
2019-02-28T00:37:31.398Z,4.20
2019-02-28T00:42:34.775Z,4.10
2019-02-28T00:47:38.164Z,4.10
2019-02-28T00:52:41.537Z,4.00
2019-02-28T00:57:44.918Z,4.00
2019-02-28T01:02:52.112Z,3.90
2019-02-28T01:07:53.432Z,3.80
2019-02-28T01:12:56.824Z,3.80
2019-02-28T01:18:00.382Z,3.70
2019-02-28T01:23:04.839Z,3.60
2019-02-28T01:28:08.236Z,3.60
2019-02-28T01:33:11.611Z,3.50
2019-02-28T01:38:15.000Z,3.40
2019-02-28T01:43:18.376Z,3.40
2019-02-28T01:48:22.612Z,3.30
2019-02-28T01:53:26.829Z,3.30
2019-02-28T01:58:30.222Z,3.20
2019-02-28T02:03:33.620Z,3.20
2019-02-28T02:08:37.837Z,3.10
2019-02-28T02:13:41.755Z,3.00
2019-02-28T02:18:45.227Z,3.00
2019-02-28T02:23:49.668Z,2.90
2019-02-28T02:28:53.697Z,2.80
2019-02-28T02:33:57.088Z,2.80
2019-02-28T02:39:00.487Z,2.80
2019-02-28T02:44:03.884Z,2.70
2019-02-28T02:49:07.266Z,2.60
2019-02-28T02:54:18.164Z,2.60
2019-02-28T02:59:15.782Z,2.60
2019-02-28T03:04:23.020Z,2.50
2019-02-28T03:09:24.269Z,2.50
2019-02-28T03:14:27.657Z,2.40
2019-02-28T03:19:33.537Z,2.40
2019-02-28T03:24:36.172Z,2.40
2019-02-28T03:29:43.295Z,2.40
2019-02-28T03:34:55.431Z,2.30
2019-02-28T03:39:49.772Z,2.30
2019-02-28T03:44:56.961Z,2.30
2019-02-28T03:49:58.265Z,2.20
2019-02-28T03:55:03.399Z,2.20
2019-02-28T04:00:23.325Z,2.10
2019-02-28T04:05:28.022Z,2.10
2019-02-28T04:10:31.689Z,2.10
2019-02-28T04:15:35.080Z,2.10
2019-02-28T04:20:38.552Z,2.00
2019-02-28T04:25:41.931Z,2.00
2019-02-28T04:30:45.323Z,2.00
2019-02-28T04:35:48.709Z,2.00
2019-02-28T04:40:52.095Z,2.00
2019-02-28T04:45:57.629Z,1.90
2019-02-28T04:51:02.260Z,1.90
2019-02-28T04:56:11.182Z,1.90
2019-02-28T05:01:12.389Z,1.90
2019-02-28T05:06:18.359Z,1.90
2019-02-28T05:11:21.138Z,1.80
2019-02-28T05:16:24.528Z,1.80
2019-02-28T05:21:27.916Z,1.80
2019-02-28T05:26:31.300Z,1.70
2019-02-28T05:31:34.683Z,1.70
2019-02-28T05:36:38.823Z,1.70
2019-02-28T05:41:42.263Z,1.60
2019-02-28T05:46:45.643Z,1.60
2019-02-28T05:51:49.043Z,1.60
2019-02-28T05:56:52.438Z,1.50
2019-02-28T06:01:55.840Z,1.50
2019-02-28T06:06:59.231Z,1.50
2019-02-28T06:12:02.636Z,1.40
2019-02-28T06:17:06.028Z,1.40
2019-02-28T06:22:09.415Z,1.40
2019-02-28T06:27:12.791Z,1.30
2019-02-28T06:32:16.168Z,1.30
2019-02-28T06:37:19.573Z,1.30
2019-02-28T06:42:22.968Z,1.30
2019-02-28T06:47:26.341Z,1.30
2019-02-28T06:52:29.791Z,1.30
2019-02-28T06:57:33.179Z,1.30
2019-02-28T07:02:36.579Z,1.30
2019-02-28T07:07:39.963Z,1.40
2019-02-28T07:12:43.363Z,1.40
2019-02-28T07:17:47.606Z,1.50
2019-02-28T07:22:54.603Z,1.50
2019-02-28T07:27:56.100Z,1.70
2019-02-28T07:32:59.507Z,1.70
2019-02-28T07:38:02.953Z,1.90
2019-02-28T07:43:12.059Z,2.00
2019-02-28T07:48:11.439Z,2.20
2019-02-28T07:53:14.825Z,2.40
2019-02-28T07:58:18.209Z,2.80
2019-02-28T08:03:21.603Z,3.00
2019-02-28T08:08:26.493Z,3.30
2019-02-28T08:13:30.089Z,3.60
2019-02-28T08:18:33.471Z,3.90
2019-02-28T08:23:37.544Z,4.20
2019-02-28T08:28:41.552Z,4.60
2019-02-28T08:33:48.048Z,5.10
2019-02-28T08:38:50.031Z,5.50
2019-02-28T08:43:53.408Z,6.10
2019-02-28T08:48:56.784Z,6.60
2019-02-28T08:54:00.159Z,7.20
2019-02-28T08:59:11.538Z,7.80
2019-02-28T09:04:08.722Z,8.30
2019-02-28T09:09:12.366Z,8.70
2019-02-28T09:14:17.808Z,9.20
2019-02-28T09:19:20.844Z,9.70
2019-02-28T09:24:25.934Z,10.10
2019-02-28T09:29:29.500Z,10.60
2019-02-28T09:34:32.906Z,11.00
2019-02-28T09:39:36.291Z,11.40
2019-02-28T09:44:39.677Z,11.70
2019-02-28T09:49:44.286Z,12.00
2019-02-28T09:54:48.207Z,12.30
2019-02-28T09:59:51.592Z,12.80
2019-02-28T10:04:54.996Z,13.40
2019-02-28T10:09:58.399Z,13.70
2019-02-28T10:15:07.301Z,14.20
2019-02-28T10:20:09.998Z,14.50
2019-02-28T10:25:14.619Z,14.70
2019-02-28T10:30:30.751Z,14.90
2019-02-28T10:35:26.272Z,15.10
2019-02-28T10:40:30.707Z,15.30
2019-02-28T10:45:34.099Z,15.80
2019-02-28T10:50:38.624Z,16.00
2019-02-28T10:55:42.247Z,16.10
2019-02-28T11:00:46.258Z,16.30
2019-02-28T11:05:53.033Z,16.50
2019-02-28T11:10:54.835Z,16.80
2019-02-28T11:15:58.217Z,17.00
2019-02-28T11:21:01.599Z,17.20
2019-02-28T11:26:06.409Z,17.30
2019-02-28T11:31:11.229Z,17.50
2019-02-28T11:36:14.711Z,17.60
2019-02-28T11:41:18.562Z,17.80
2019-02-28T11:46:22.978Z,17.90
2019-02-28T11:51:26.375Z,18.10
2019-02-28T11:56:29.774Z,18.20
2019-02-28T12:01:33.171Z,18.30
2019-02-28T12:06:36.771Z,18.40
2019-02-28T12:11:40.219Z,18.60
2019-02-28T12:16:44.094Z,18.80
2019-02-28T12:21:47.634Z,18.90
2019-02-28T12:26:52.579Z,18.90
2019-02-28T12:31:56.115Z,18.90
2019-02-28T12:37:00.001Z,19.00
2019-02-28T12:42:03.375Z,18.90
2019-02-28T12:47:07.397Z,19.10
2019-02-28T12:52:11.301Z,19.20
2019-02-28T12:57:15.925Z,19.20
2019-02-28T13:02:19.322Z,19.30
2019-02-28T13:07:22.704Z,19.20
2019-02-28T13:12:26.096Z,19.20
2019-02-28T13:17:31.688Z,19.20
2019-02-28T13:22:34.600Z,19.20
2019-02-28T13:27:38.051Z,19.20
2019-02-28T13:32:41.586Z,19.10
2019-02-28T13:37:45.048Z,19.00
2019-02-28T13:42:48.503Z,19.10
2019-02-28T13:47:51.889Z,19.10
2019-02-28T13:52:55.456Z,19.20
2019-02-28T13:57:58.916Z,19.20
2019-02-28T14:03:09.632Z,19.30
2019-02-28T14:08:13.218Z,19.20
2019-02-28T14:13:16.603Z,19.20
2019-02-28T14:18:19.987Z,19.10
2019-02-28T14:23:23.448Z,19.10
2019-02-28T14:28:26.839Z,19.10
2019-02-28T14:33:30.236Z,18.90
2019-02-28T14:38:33.822Z,18.80
2019-02-28T14:43:37.169Z,18.70
2019-02-28T14:48:40.784Z,18.50
2019-02-28T14:53:45.434Z,18.40
2019-02-28T14:58:49.359Z,18.30
2019-02-28T15:03:52.751Z,18.10
2019-02-28T15:08:56.143Z,18.10
2019-02-28T15:13:59.539Z,18.00
2019-02-28T15:19:02.932Z,18.00
2019-02-28T15:24:08.554Z,17.90
2019-02-28T15:29:11.425Z,17.70
2019-02-28T15:34:14.852Z,17.60
2019-02-28T15:39:18.455Z,17.50
2019-02-28T15:44:21.891Z,17.50
2019-02-28T15:49:25.287Z,17.40
2019-02-28T15:54:28.748Z,17.40
2019-02-28T15:59:32.207Z,17.30
2019-02-28T16:04:35.589Z,17.20
2019-02-28T16:09:38.970Z,17.10
2019-02-28T16:14:42.374Z,17.00
2019-02-28T16:19:45.768Z,16.90
2019-02-28T16:24:49.151Z,16.80
2019-02-28T16:29:55.610Z,16.70
2019-02-28T16:34:57.661Z,16.60
2019-02-28T16:40:01.055Z,16.40
2019-02-28T16:45:07.325Z,16.30
2019-02-28T16:50:11.636Z,16.20
2019-02-28T16:55:15.095Z,16.00
2019-02-28T17:00:18.544Z,15.90
2019-02-28T17:05:26.633Z,15.70
2019-02-28T17:10:28.900Z,15.60
2019-02-28T17:15:42.599Z,15.40
2019-02-28T17:20:46.052Z,15.30
2019-02-28T17:25:49.455Z,15.20
2019-02-28T17:31:03.524Z,15.10
2019-02-28T17:36:08.447Z,14.90
2019-02-28T17:41:12.091Z,14.80
2019-02-28T17:46:16.411Z,14.70
2019-02-28T17:51:22.875Z,14.60
2019-02-28T17:56:40.815Z,14.50
2019-02-28T18:01:53.491Z,14.40
2019-02-28T18:07:09.135Z,14.20
2019-02-28T18:12:21.555Z,14.10
2019-02-28T18:17:39.707Z,14.00
2019-02-28T18:22:51.526Z,13.90
2019-02-28T18:28:02.512Z,13.70
2019-02-28T18:33:06.708Z,13.70
2019-02-28T18:38:11.147Z,13.60
2019-02-28T18:43:14.536Z,13.50
2019-02-28T18:48:18.719Z,13.40
2019-02-28T18:53:22.136Z,13.30
2019-02-28T18:58:25.533Z,13.20
2019-02-28T19:03:28.935Z,13.20
2019-02-28T19:08:32.324Z,13.10
2019-02-28T19:13:35.944Z,13.00
2019-02-28T19:18:39.368Z,13.00
2019-02-28T19:23:42.744Z,12.90
2019-02-28T19:28:46.130Z,12.80
2019-02-28T19:33:49.523Z,12.70
2019-02-28T19:38:52.921Z,12.70
2019-02-28T19:43:56.315Z,12.60
2019-02-28T19:48:59.705Z,12.60
2019-02-28T19:54:03.087Z,12.50
2019-02-28T19:59:06.468Z,12.40
2019-02-28T20:04:09.855Z,12.40
2019-02-28T20:09:13.245Z,12.30
2019-02-28T20:14:17.487Z,12.30
2019-02-28T20:19:20.869Z,12.20
2019-02-28T20:29:26.694Z,12.20
2019-02-28T20:34:30.125Z,12.10
2019-02-28T20:39:33.527Z,12.10
2019-02-28T20:44:36.907Z,12.00
2019-02-28T20:49:40.379Z,12.00
2019-02-28T20:54:43.812Z,11.90
2019-02-28T20:59:47.204Z,11.90
2019-02-28T21:04:50.595Z,11.80
2019-02-28T21:09:53.988Z,11.80
2019-02-28T21:14:57.447Z,11.70
2019-02-28T21:20:00.839Z,11.70
2019-02-28T21:25:06.857Z,11.60
2019-02-28T21:30:16.055Z,11.50
2019-02-28T21:35:19.683Z,11.50
2019-02-28T21:40:23.897Z,11.40
2019-02-28T21:45:28.419Z,11.30
2019-02-28T21:50:31.844Z,11.30
2019-02-28T21:55:35.240Z,11.20
2019-02-28T22:00:38.629Z,11.10
2019-02-28T22:05:42.013Z,11.10
2019-02-28T22:10:45.396Z,11.00
2019-02-28T22:15:48.788Z,11.00
2019-02-28T22:20:52.192Z,10.90
2019-02-28T22:25:55.572Z,10.80
2019-02-28T22:31:00.604Z,10.70
2019-02-28T22:36:05.697Z,10.70
2019-02-28T22:41:09.169Z,10.60
2019-02-28T22:46:12.595Z,10.60
2019-02-28T22:51:15.975Z,10.50
2019-02-28T22:56:19.359Z,10.50
2019-02-28T23:01:25.152Z,10.40
2019-02-28T23:06:28.546Z,10.30
2019-02-28T23:11:31.948Z,10.20
2019-02-28T23:16:35.352Z,10.10
2019-02-28T23:21:38.731Z,10.10
2019-02-28T23:27:07.527Z,10.00
2019-02-28T23:32:25.659Z,9.90
2019-02-28T23:37:29.051Z,9.80
2019-02-28T23:42:32.424Z,9.80
2019-02-28T23:47:35.813Z,9.70
2019-02-28T23:52:39.199Z,9.60
2019-02-28T23:57:42.576Z,9.60
